createdAt,value
2022-07-26T00:01:56.591Z,75716.38
2022-07-26T00:04:23.254Z,75734.25
2022-07-26T00:06:49.864Z,75730.28
2022-07-26T00:09:16.463Z,75750.16
2022-07-26T00:11:43.030Z,75744.19
2022-07-26T00:14:09.969Z,75762.06
2022-07-26T00:16:38.323Z,75758.09
2022-07-26T00:19:07.750Z,75722.34
2022-07-26T00:21:36.934Z,75720.34
2022-07-26T00:24:08.072Z,75726.31
2022-07-26T00:26:34.712Z,75724.31
2022-07-26T00:29:04.057Z,75724.31
2022-07-26T00:31:32.311Z,75722.34
2022-07-26T00:33:58.916Z,75714.41
2022-07-26T00:36:26.067Z,75696.50
2022-07-26T00:38:52.594Z,75698.50
2022-07-26T00:41:19.141Z,75704.47
2022-07-26T00:44:04.289Z,75700.47
2022-07-26T00:46:30.903Z,75706.44
2022-07-26T00:48:57.648Z,75698.50
2022-07-26T00:51:24.277Z,75680.63
2022-07-26T00:53:50.894Z,75692.53
2022-07-26T00:56:18.032Z,75702.47
2022-07-26T00:58:44.976Z,75710.41
2022-07-26T01:01:11.701Z,75700.47
2022-07-26T01:03:39.729Z,75706.44
2022-07-26T01:06:06.958Z,75724.31
2022-07-26T01:08:33.775Z,75736.25
2022-07-26T01:11:00.279Z,75726.31
2022-07-26T01:13:29.673Z,75730.28
2022-07-26T01:15:58.450Z,75722.34
2022-07-26T01:18:25.092Z,75702.47
2022-07-26T01:20:54.163Z,75728.31
2022-07-26T01:23:20.856Z,75746.19
2022-07-26T01:25:48.782Z,75744.19
2022-07-26T01:28:19.984Z,75756.13
2022-07-26T01:30:47.536Z,75756.13
2022-07-26T01:33:14.089Z,75742.19
2022-07-26T01:35:40.689Z,75758.09
2022-07-26T01:38:07.233Z,75760.09
2022-07-26T01:40:33.751Z,75756.13
2022-07-26T01:43:03.092Z,75746.19
2022-07-26T01:45:29.735Z,75748.16
2022-07-26T01:47:56.288Z,75734.25
2022-07-26T01:50:22.916Z,75736.25
2022-07-26T01:52:49.471Z,75746.19
2022-07-26T01:55:16.087Z,75748.16
2022-07-26T01:57:45.437Z,75754.13
2022-07-26T02:00:12.645Z,75758.09
2022-07-26T02:02:39.352Z,75760.09
2022-07-26T02:05:06.359Z,75748.16
2022-07-26T02:07:42.561Z,75752.13
2022-07-26T02:10:12.628Z,75742.19
2022-07-26T02:12:40.537Z,75756.13
2022-07-26T02:15:08.816Z,75768.03
2022-07-26T02:17:35.601Z,75770.03
2022-07-26T02:20:02.370Z,75758.09
2022-07-26T02:22:28.998Z,75770.03
2022-07-26T02:24:55.668Z,75774.00
2022-07-26T02:27:22.411Z,75779.94
2022-07-26T02:29:49.014Z,75787.91
2022-07-26T02:32:15.771Z,75779.94
2022-07-26T02:34:42.508Z,75779.94
2022-07-26T02:37:09.087Z,75781.94
2022-07-26T02:39:35.659Z,75783.94
2022-07-26T02:42:03.474Z,75789.88
2022-07-26T02:44:30.689Z,75793.84
2022-07-26T02:46:57.365Z,75793.84
2022-07-26T02:49:23.889Z,75803.78
2022-07-26T02:51:50.734Z,75793.84
2022-07-26T02:54:17.294Z,75799.81
2022-07-26T02:56:43.801Z,75783.94
2022-07-26T02:59:10.279Z,75781.94
2022-07-26T03:01:39.025Z,75799.81
2022-07-26T03:04:07.910Z,75787.91
2022-07-26T03:06:34.835Z,75797.84
2022-07-26T03:09:01.431Z,75803.78
2022-07-26T03:11:28.180Z,75801.81
2022-07-26T03:13:54.732Z,75813.72
2022-07-26T03:16:24.794Z,75817.69
2022-07-26T03:18:53.962Z,75827.63
2022-07-26T03:21:20.475Z,75823.66
2022-07-26T03:23:47.037Z,75837.56
2022-07-26T03:26:13.552Z,75835.59
2022-07-26T03:28:42.422Z,75833.59
2022-07-26T03:31:09.005Z,75845.50
2022-07-26T03:33:35.592Z,75835.59
2022-07-26T03:36:02.203Z,75847.50
2022-07-26T03:38:29.031Z,75839.56
2022-07-26T03:40:55.568Z,75843.53
2022-07-26T03:43:23.402Z,75839.56
2022-07-26T03:45:50.810Z,75851.47
2022-07-26T03:48:17.472Z,75843.53
2022-07-26T03:50:44.220Z,75859.41
2022-07-26T03:53:10.767Z,75855.44
2022-07-26T03:55:55.885Z,75861.41
2022-07-26T03:58:22.504Z,75867.38
2022-07-26T04:00:49.211Z,75865.38
2022-07-26T04:03:15.774Z,75863.41
2022-07-26T04:05:48.523Z,75867.38
2022-07-26T04:08:16.305Z,75861.41
2022-07-26T04:10:51.401Z,75857.44
2022-07-26T04:13:18.860Z,75865.38
2022-07-26T04:15:45.957Z,75863.41
2022-07-26T04:18:14.262Z,75867.38
2022-07-26T04:20:41.608Z,75857.44
2022-07-26T04:23:11.498Z,75863.41
2022-07-26T04:25:41.273Z,75857.44
2022-07-26T04:28:08.248Z,75867.38
2022-07-26T04:30:34.855Z,75863.41
2022-07-26T04:33:01.578Z,75867.38
2022-07-26T04:35:28.279Z,75863.41
2022-07-26T04:37:54.978Z,75857.44
2022-07-26T04:40:23.566Z,75869.34
2022-07-26T04:42:52.036Z,75881.28
2022-07-26T04:45:19.745Z,75867.38
2022-07-26T04:47:51.297Z,75857.44
2022-07-26T04:50:19.594Z,75869.34
2022-07-26T04:52:46.318Z,75875.31
2022-07-26T04:55:13.423Z,75855.44
2022-07-26T04:57:40.111Z,75851.47
2022-07-26T05:00:21.441Z,75877.31
2022-07-26T05:02:49.788Z,75873.31
2022-07-26T05:05:16.410Z,75867.38
2022-07-26T05:07:45.632Z,75855.44
2022-07-26T05:10:13.524Z,75865.38
2022-07-26T05:12:40.156Z,75853.47
2022-07-26T05:15:14.117Z,75863.41
2022-07-26T05:17:42.768Z,75863.41
2022-07-26T05:20:11.379Z,75865.38
2022-07-26T05:22:38.163Z,75873.31
2022-07-26T05:25:06.862Z,75889.22
2022-07-26T05:27:33.667Z,75873.31
2022-07-26T05:30:00.236Z,75869.34
2022-07-26T05:32:28.193Z,75867.38
2022-07-26T05:34:55.000Z,75887.22
2022-07-26T05:37:21.566Z,75879.28
2022-07-26T05:39:48.216Z,75883.25
2022-07-26T05:42:14.717Z,75881.28
2022-07-26T05:44:42.776Z,75897.16
2022-07-26T05:47:09.919Z,75911.06
2022-07-26T05:49:39.907Z,75899.16
2022-07-26T05:52:07.102Z,75887.22
2022-07-26T05:54:33.615Z,75899.16
2022-07-26T05:57:00.111Z,75899.16
2022-07-26T05:59:26.615Z,75893.19
2022-07-26T06:01:56.435Z,75901.16
2022-07-26T06:04:25.957Z,75883.25
2022-07-26T06:06:54.714Z,75871.34
2022-07-26T06:09:24.965Z,75891.22
2022-07-26T06:11:51.621Z,75891.22
2022-07-26T06:14:18.769Z,75883.25
2022-07-26T06:16:47.049Z,75869.34
2022-07-26T06:19:13.737Z,75847.50
2022-07-26T06:21:40.358Z,75849.50
2022-07-26T06:24:07.261Z,75851.47
2022-07-26T06:26:34.389Z,75871.34
2022-07-26T06:29:00.940Z,75877.31
2022-07-26T06:31:27.589Z,75863.41
2022-07-26T06:33:54.207Z,75859.41
2022-07-26T06:36:20.697Z,75863.41
2022-07-26T06:38:47.260Z,75867.38
2022-07-26T06:41:15.774Z,75875.31
2022-07-26T06:43:42.297Z,75843.53
2022-07-26T06:46:08.885Z,75831.59
2022-07-26T06:48:36.261Z,75833.59
2022-07-26T06:51:06.234Z,75823.66
2022-07-26T06:53:32.784Z,75827.63
2022-07-26T06:55:59.500Z,75815.72
2022-07-26T06:58:26.332Z,75809.75
2022-07-26T07:00:52.944Z,75795.84
2022-07-26T07:03:19.484Z,75809.75
2022-07-26T07:05:50.002Z,75791.88
2022-07-26T07:08:17.109Z,75797.84
2022-07-26T07:10:44.833Z,75787.91
2022-07-26T07:13:13.711Z,75787.91
2022-07-26T07:15:40.289Z,75789.88
2022-07-26T07:18:06.864Z,75793.84
2022-07-26T07:20:34.433Z,75797.84
2022-07-26T07:23:00.912Z,75795.84
2022-07-26T07:25:30.835Z,75789.88
2022-07-26T07:27:57.849Z,75793.84
2022-07-26T07:30:24.440Z,75783.94
2022-07-26T07:32:55.725Z,75772.00
2022-07-26T07:35:23.951Z,75779.94
2022-07-26T07:37:53.097Z,75742.19
2022-07-26T07:40:21.462Z,75736.25
2022-07-26T07:42:48.129Z,75708.44
2022-07-26T07:45:14.982Z,75710.41
2022-07-26T07:47:41.568Z,75690.56
2022-07-26T07:50:08.751Z,75692.53
2022-07-26T07:52:35.293Z,75696.50
2022-07-26T07:55:37.055Z,75678.63
2022-07-26T07:57:48.380Z,75668.69
2022-07-26T08:00:16.809Z,75690.56
2022-07-26T08:02:44.779Z,75680.63
2022-07-26T08:05:14.350Z,75656.78
2022-07-26T08:07:42.606Z,75650.81
2022-07-26T08:10:10.361Z,75650.81
2022-07-26T08:12:37.094Z,75628.97
2022-07-26T08:15:07.186Z,75634.94
2022-07-26T08:17:34.903Z,75625.00
2022-07-26T08:20:05.116Z,75597.19
2022-07-26T08:22:34.607Z,75585.25
2022-07-26T08:25:01.255Z,75567.38
2022-07-26T08:27:27.768Z,75559.44
2022-07-26T08:29:54.296Z,75617.03
2022-07-26T08:32:20.851Z,75619.03
2022-07-26T08:34:47.381Z,75638.91
2022-07-26T08:37:17.574Z,75654.78
2022-07-26T08:39:46.791Z,75648.84
2022-07-26T08:42:15.064Z,75621.03
2022-07-26T08:44:46.799Z,75595.19
2022-07-26T08:47:14.928Z,75567.38
2022-07-26T08:49:42.788Z,75581.28
2022-07-26T08:52:10.553Z,75591.22
2022-07-26T08:54:37.273Z,75601.16
2022-07-26T08:57:03.998Z,75593.22
2022-07-26T08:59:30.799Z,75565.41
2022-07-26T09:02:03.032Z,75525.66
2022-07-26T09:04:43.920Z,75509.78
2022-07-26T09:07:16.729Z,75464.06
2022-07-26T09:10:05.244Z,75424.34
2022-07-26T09:12:33.059Z,75394.56
2022-07-26T09:15:00.767Z,75406.47
2022-07-26T09:17:50.002Z,75414.41
2022-07-26T09:20:24.272Z,75414.41
2022-07-26T09:23:07.561Z,75378.66
2022-07-26T09:25:36.699Z,75382.63
2022-07-26T09:28:04.931Z,75358.78
2022-07-26T09:30:33.092Z,75360.78
2022-07-26T09:33:05.610Z,75348.88
2022-07-26T09:35:52.089Z,75360.78
2022-07-26T09:38:19.488Z,75360.78
2022-07-26T09:40:50.664Z,75376.69
2022-07-26T09:43:19.815Z,75384.63
2022-07-26T09:46:05.061Z,75368.72
2022-07-26T09:48:52.341Z,75406.47
2022-07-26T09:51:42.791Z,75418.38
2022-07-26T09:54:11.724Z,75436.28
2022-07-26T09:56:50.709Z,75456.13
2022-07-26T09:59:25.197Z,75474.00
2022-07-26T10:01:53.326Z,75460.09
2022-07-26T10:04:21.003Z,75442.22
2022-07-26T10:06:47.762Z,75372.69
2022-07-26T10:09:15.235Z,75368.72
2022-07-26T10:11:47.628Z,75350.84
2022-07-26T10:14:32.519Z,75374.69
2022-07-26T10:17:18.360Z,75344.88
2022-07-26T10:19:47.521Z,75332.97
2022-07-26T10:22:32.137Z,75303.16
2022-07-26T10:25:18.629Z,75287.28
2022-07-26T10:27:48.801Z,75301.19
2022-07-26T10:30:18.505Z,75336.94
2022-07-26T10:32:50.927Z,75348.88
2022-07-26T10:35:44.934Z,75386.59
2022-07-26T10:38:23.765Z,75362.75
2022-07-26T10:41:06.339Z,75336.94
2022-07-26T10:43:42.490Z,75307.16
2022-07-26T10:46:15.672Z,75271.38
2022-07-26T10:48:59.958Z,75237.63
2022-07-26T10:51:28.541Z,75209.81
2022-07-26T10:54:06.659Z,75227.69
2022-07-26T10:56:34.223Z,75275.38
2022-07-26T10:59:01.477Z,75334.97
2022-07-26T11:01:40.984Z,75398.53
2022-07-26T11:04:21.979Z,75440.25
2022-07-26T11:06:48.976Z,75474.00
2022-07-26T11:09:16.144Z,75505.78
2022-07-26T11:11:46.624Z,75541.56
2022-07-26T11:14:16.914Z,75577.31
2022-07-26T11:16:48.865Z,75577.31
2022-07-26T11:19:18.030Z,75565.41
2022-07-26T11:21:46.307Z,75529.63
2022-07-26T11:24:13.562Z,75507.78
2022-07-26T11:26:46.077Z,75454.16
2022-07-26T11:29:17.551Z,75432.28
2022-07-26T11:31:50.537Z,75396.53
2022-07-26T11:34:26.889Z,75376.69
2022-07-26T11:36:55.920Z,75360.78
2022-07-26T11:39:27.820Z,75330.97
2022-07-26T11:42:15.123Z,75275.38
2022-07-26T11:44:46.550Z,75243.59
2022-07-26T11:47:21.365Z,75205.84
2022-07-26T11:50:11.635Z,75168.09
2022-07-26T11:52:39.040Z,75207.81
2022-07-26T11:55:06.936Z,75207.81
2022-07-26T11:57:33.579Z,75207.81
2022-07-26T12:00:00.998Z,75187.97
2022-07-26T12:02:29.475Z,75154.19
2022-07-26T12:05:18.332Z,75134.34
2022-07-26T12:08:02.888Z,75128.38
2022-07-26T12:10:30.071Z,75136.31
2022-07-26T12:13:07.652Z,75187.97
2022-07-26T12:15:48.061Z,75219.75
2022-07-26T12:18:31.365Z,75275.38
2022-07-26T12:21:06.227Z,75334.97
2022-07-26T12:23:49.443Z,75364.75
2022-07-26T12:26:27.911Z,75394.56
2022-07-26T12:28:55.691Z,75472.03
2022-07-26T12:31:27.765Z,75454.16
2022-07-26T12:33:54.656Z,75462.09
2022-07-26T12:36:27.771Z,75460.09
2022-07-26T12:38:56.739Z,75454.16
2022-07-26T12:44:06.096Z,75438.25
2022-07-26T12:46:34.707Z,75436.28
2022-07-26T12:49:01.736Z,75412.44
2022-07-26T12:51:28.419Z,75384.63
2022-07-26T12:53:55.030Z,75434.28
2022-07-26T12:56:21.571Z,75454.16
2022-07-26T12:58:48.050Z,75541.56
2022-07-26T13:01:14.673Z,75605.13
2022-07-26T13:03:41.377Z,75660.75
2022-07-26T13:06:08.057Z,75702.47
2022-07-26T13:08:34.664Z,75712.41
2022-07-26T13:11:01.316Z,75775.97
2022-07-26T13:13:27.922Z,75789.88
2022-07-26T13:15:54.427Z,75793.84
2022-07-26T13:18:21.040Z,75793.84
2022-07-26T13:20:47.561Z,75775.97
2022-07-26T13:23:15.798Z,75760.09
2022-07-26T13:25:47.986Z,75740.22
2022-07-26T13:28:15.859Z,75744.19
2022-07-26T13:30:43.569Z,75758.09
2022-07-26T13:33:10.708Z,75756.13
2022-07-26T13:35:39.352Z,75714.41
2022-07-26T13:38:08.402Z,75740.22
2022-07-26T13:40:34.999Z,75738.22
2022-07-26T13:43:01.657Z,75744.19
2022-07-26T13:45:28.893Z,75736.25
2022-07-26T13:47:55.933Z,75797.84
2022-07-26T13:50:22.761Z,75811.75
2022-07-26T13:52:49.269Z,75803.78
2022-07-26T13:55:15.910Z,75801.81
2022-07-26T13:57:52.946Z,75764.06
2022-07-26T14:00:23.207Z,75758.09
2022-07-26T14:02:49.851Z,75795.84
2022-07-26T14:05:16.663Z,75797.84
2022-07-26T14:07:43.661Z,75791.88
2022-07-26T14:10:10.520Z,75793.84
2022-07-26T14:12:38.211Z,75795.84
2022-07-26T14:15:11.517Z,75748.16
2022-07-26T14:17:40.699Z,75807.75
2022-07-26T14:20:07.959Z,75811.75
2022-07-26T14:22:34.721Z,75799.81
2022-07-26T14:25:01.236Z,75783.94
2022-07-26T14:27:28.015Z,75756.13
2022-07-26T14:29:54.528Z,75775.97
2022-07-26T14:32:22.036Z,75774.00
2022-07-26T14:34:48.809Z,75777.97
2022-07-26T14:37:44.438Z,75783.94
2022-07-26T14:40:01.889Z,75801.81
2022-07-26T14:42:28.496Z,75823.66
2022-07-26T14:44:55.140Z,75823.66
2022-07-26T14:47:21.625Z,75815.72
2022-07-26T14:49:48.301Z,75801.81
2022-07-26T14:52:15.540Z,75801.81
2022-07-26T14:54:42.160Z,75809.75
2022-07-26T14:57:08.693Z,75837.56
2022-07-26T14:59:35.306Z,75855.44
2022-07-26T15:02:05.656Z,75813.72
2022-07-26T15:04:32.791Z,75839.56
2022-07-26T15:06:59.812Z,75809.75
2022-07-26T15:09:26.372Z,75799.81
2022-07-26T15:11:53.118Z,75783.94
2022-07-26T15:14:19.691Z,75775.97
2022-07-26T15:16:46.358Z,75760.09
2022-07-26T15:19:12.944Z,75795.84
2022-07-26T15:21:39.523Z,75787.91
2022-07-26T15:24:06.325Z,75783.94
2022-07-26T15:26:32.919Z,75732.28
2022-07-26T15:28:59.511Z,75551.50
2022-07-26T15:31:36.810Z,75386.59
2022-07-26T15:34:07.467Z,75360.78
2022-07-26T15:36:34.705Z,75489.91
2022-07-26T15:39:15.605Z,75402.50
2022-07-26T15:41:43.115Z,75285.28
2022-07-26T15:44:11.129Z,75293.25
2022-07-26T15:46:39.720Z,75327.00
2022-07-26T15:49:07.469Z,75446.19
2022-07-26T15:51:34.220Z,75408.47
2022-07-26T15:54:02.580Z,75571.34
2022-07-26T15:56:29.253Z,75571.34
2022-07-26T15:58:55.921Z,75603.13
2022-07-26T16:01:22.526Z,75567.38
2022-07-26T16:03:49.192Z,75595.19
2022-07-26T16:06:15.755Z,75644.84
2022-07-26T16:08:58.887Z,75654.78
2022-07-26T16:11:29.958Z,75668.69
2022-07-26T16:14:01.216Z,75668.69
2022-07-26T16:16:28.152Z,75668.69
2022-07-26T16:18:55.897Z,75680.63
2022-07-26T16:21:22.385Z,75652.81
2022-07-26T16:23:49.072Z,75642.88
2022-07-26T16:26:15.570Z,75660.75
2022-07-26T16:28:42.164Z,75642.88
2022-07-26T16:31:08.784Z,75662.75
2022-07-26T16:33:35.384Z,75678.63
2022-07-26T16:36:06.127Z,75694.53
2022-07-26T16:38:33.926Z,75716.38
2022-07-26T16:41:00.889Z,75720.34
2022-07-26T16:43:27.427Z,75708.44
2022-07-26T16:45:54.008Z,75684.59
2022-07-26T16:48:20.603Z,75698.50
2022-07-26T16:50:47.246Z,75684.59
2022-07-26T16:53:13.751Z,75692.53
2022-07-26T16:55:40.268Z,75698.50
2022-07-26T16:58:06.800Z,75698.50
2022-07-26T17:00:33.568Z,75702.47
2022-07-26T17:03:00.131Z,75684.59
2022-07-26T17:05:26.817Z,75708.44
2022-07-26T17:07:53.329Z,75700.47
2022-07-26T17:10:20.616Z,75680.63
2022-07-26T17:12:47.206Z,75712.41
2022-07-26T17:15:13.941Z,75706.44
2022-07-26T17:17:42.195Z,75724.31
2022-07-26T17:20:11.808Z,75730.28
2022-07-26T17:22:38.497Z,75748.16
2022-07-26T17:25:06.687Z,75758.09
2022-07-26T17:27:35.388Z,75781.94
2022-07-26T17:30:07.276Z,75801.81
2022-07-26T17:32:34.447Z,75807.75
2022-07-26T17:35:01.145Z,75795.84
2022-07-26T17:37:28.618Z,75793.84
2022-07-26T17:39:55.370Z,75781.94
2022-07-26T17:42:24.169Z,75772.00
2022-07-26T17:44:51.532Z,75758.09
2022-07-26T17:47:28.919Z,75734.25
2022-07-26T17:50:01.376Z,75740.22
2022-07-26T17:52:35.655Z,75750.16
2022-07-26T17:55:02.712Z,75760.09
2022-07-26T17:57:29.754Z,75775.97
2022-07-26T17:59:56.352Z,75811.75
2022-07-26T18:02:22.993Z,75819.69
2022-07-26T18:04:50.104Z,75833.59
2022-07-26T18:07:16.732Z,75835.59
2022-07-26T18:09:43.340Z,75851.47
2022-07-26T18:12:09.984Z,75853.47
2022-07-26T18:14:37.728Z,75871.34
2022-07-26T18:17:04.305Z,75885.25
2022-07-26T18:19:32.760Z,75895.19
2022-07-26T18:22:04.074Z,75903.13
2022-07-26T18:24:32.389Z,75917.03
2022-07-26T18:26:59.043Z,75928.97
2022-07-26T18:29:25.779Z,75919.03
2022-07-26T18:31:52.691Z,75923.00
2022-07-26T18:34:19.272Z,75946.84
2022-07-26T18:36:45.834Z,75946.84
2022-07-26T18:39:12.833Z,75942.88
2022-07-26T18:41:39.583Z,75950.81
2022-07-26T18:44:06.201Z,75962.75
2022-07-26T18:46:32.748Z,75956.78
2022-07-26T18:49:00.641Z,75974.66
2022-07-26T18:51:29.019Z,75986.56
2022-07-26T18:53:57.293Z,76002.47
2022-07-26T18:56:23.992Z,76004.47
2022-07-26T18:58:50.509Z,76030.28
2022-07-26T19:01:17.119Z,76046.19
2022-07-26T19:03:43.724Z,76060.09
2022-07-26T19:06:11.873Z,76064.06
2022-07-26T19:08:38.512Z,76068.03
2022-07-26T19:11:05.000Z,76077.97
2022-07-26T19:13:31.510Z,76079.97
2022-07-26T19:15:58.082Z,76077.97
2022-07-26T19:18:24.660Z,76095.84
2022-07-26T19:20:51.239Z,76109.75
2022-07-26T19:23:17.788Z,76113.75
2022-07-26T19:25:44.416Z,76133.59
2022-07-26T19:28:11.303Z,76147.50
2022-07-26T19:30:38.353Z,76159.44
2022-07-26T19:33:04.886Z,76167.38
2022-07-26T19:35:31.609Z,76167.38
2022-07-26T19:37:58.084Z,76183.28
2022-07-26T19:40:24.891Z,76187.25
2022-07-26T19:42:51.466Z,76193.22
2022-07-26T19:45:18.569Z,76197.19
2022-07-26T19:47:45.357Z,76211.09
2022-07-26T19:50:12.013Z,76215.06
2022-07-26T19:52:39.631Z,76219.03
2022-07-26T19:55:07.114Z,76225.00
2022-07-26T19:57:33.665Z,76238.91
2022-07-26T20:00:02.568Z,76236.94
2022-07-26T20:02:29.504Z,76246.88
2022-07-26T20:04:56.185Z,76252.81
2022-07-26T20:07:22.758Z,76260.78
2022-07-26T20:09:50.488Z,76262.75
2022-07-26T20:12:18.307Z,76264.75
2022-07-26T20:14:45.444Z,76270.72
2022-07-26T20:17:13.159Z,76278.66
2022-07-26T20:19:40.582Z,76282.63
2022-07-26T20:22:07.198Z,76294.56
2022-07-26T20:24:33.999Z,76298.53
2022-07-26T20:27:00.540Z,76308.47
2022-07-26T20:29:27.041Z,76312.44
2022-07-26T20:31:53.571Z,76308.47
2022-07-26T20:34:20.102Z,76312.44
2022-07-26T20:36:47.011Z,76322.38
2022-07-26T20:39:14.969Z,76336.28
2022-07-26T20:41:41.780Z,76344.22
2022-07-26T20:44:08.325Z,76352.19
2022-07-26T20:46:40.006Z,76354.16
2022-07-26T20:49:07.856Z,76352.19
2022-07-26T20:51:34.723Z,76372.03
2022-07-26T20:54:01.297Z,76372.03
2022-07-26T20:56:27.944Z,76385.97
2022-07-26T20:58:55.478Z,76387.94
2022-07-26T21:01:22.223Z,76370.06
2022-07-26T21:03:48.834Z,76387.94
2022-07-26T21:06:15.397Z,76403.84
2022-07-26T21:08:42.060Z,76397.88
2022-07-26T21:11:08.531Z,76407.81
2022-07-26T21:13:35.192Z,76419.72
2022-07-26T21:16:01.772Z,76425.69
2022-07-26T21:18:32.822Z,76433.66
2022-07-26T21:21:00.123Z,76443.59
2022-07-26T21:23:26.618Z,76463.44
2022-07-26T21:25:58.175Z,76465.44
2022-07-26T21:28:27.494Z,76459.47
2022-07-26T21:30:54.247Z,76465.44
2022-07-26T21:33:20.805Z,76477.38
2022-07-26T21:35:47.358Z,76471.41
2022-07-26T21:38:13.867Z,76487.28
2022-07-26T21:40:40.541Z,76491.28
2022-07-26T21:43:07.183Z,76499.22
2022-07-26T21:45:33.790Z,76493.25
2022-07-26T21:48:00.409Z,76495.25
2022-07-26T21:50:27.913Z,76499.22
2022-07-26T21:52:54.464Z,76495.25
2022-07-26T21:55:21.177Z,76491.28
2022-07-26T21:57:48.080Z,76479.34
2022-07-26T22:00:16.453Z,76485.31
2022-07-26T22:02:42.997Z,76489.28
2022-07-26T22:05:28.152Z,76479.34
2022-07-26T22:07:54.889Z,76479.34
2022-07-26T22:10:21.749Z,76475.38
2022-07-26T22:12:48.230Z,76475.38
2022-07-26T22:15:14.944Z,76463.44
2022-07-26T22:17:41.720Z,76447.56
2022-07-26T22:20:09.233Z,76445.56
2022-07-26T22:22:36.486Z,76449.53
2022-07-26T22:25:03.795Z,76449.53
2022-07-26T22:27:30.490Z,76445.56
2022-07-26T22:29:57.103Z,76445.56
2022-07-26T22:32:23.640Z,76431.66
2022-07-26T22:34:50.109Z,76441.59
2022-07-26T22:37:16.656Z,76445.56
2022-07-26T22:39:43.258Z,76447.56
2022-07-26T22:42:16.940Z,76433.66
2022-07-26T22:44:43.771Z,76437.63
2022-07-26T22:47:10.353Z,76429.66
2022-07-26T22:49:36.917Z,76427.69
2022-07-26T22:52:03.686Z,76431.66
2022-07-26T22:54:30.249Z,76433.66
2022-07-26T22:56:56.841Z,76429.66
2022-07-26T22:59:25.353Z,76419.72
2022-07-26T23:01:51.971Z,76427.69
2022-07-26T23:04:18.544Z,76431.66
2022-07-26T23:06:45.721Z,76429.66
2022-07-26T23:09:12.548Z,76459.47
2022-07-26T23:11:39.537Z,76457.50
2022-07-26T23:14:06.088Z,76461.47
2022-07-26T23:16:32.753Z,76469.41
2022-07-26T23:18:59.355Z,76461.47
2022-07-26T23:21:25.954Z,76457.50
2022-07-26T23:23:52.444Z,76465.44
2022-07-26T23:26:19.004Z,76461.47
2022-07-26T23:28:45.539Z,76479.34
2022-07-26T23:31:12.578Z,76481.34
2022-07-26T23:33:51.732Z,76471.41
2022-07-26T23:36:29.866Z,76463.44
2022-07-26T23:38:58.527Z,76475.38
2022-07-26T23:41:25.789Z,76469.41
2022-07-26T23:43:53.198Z,76473.38
2022-07-26T23:46:20.756Z,76471.41
2022-07-26T23:48:47.850Z,76483.31
2022-07-26T23:51:14.841Z,76477.38
2022-07-26T23:53:41.874Z,76485.31
2022-07-26T23:56:08.517Z,76487.28
2022-07-26T23:58:35.019Z,76491.28
